sensor_id;sensor_type;location;lat;lon;timestamp;pressure;altitude;pressure_sealevel;temperature;humidity
34031;BME280;20319;28.466;-16.274;2023-08-20T00:00:38;95607.56;;;26.18;40.64
34031;BME280;20319;28.466;-16.274;2023-08-20T00:03:11;95608.63;;;26.30;41.76
34031;BME280;20319;28.466;-16.274;2023-08-20T00:05:38;95391.47;;;25.03;43.02
34031;BME280;20319;28.466;-16.274;2023-08-20T00:08:04;95566.66;;;26.13;43.29
34031;BME280;20319;28.466;-16.274;2023-08-20T00:10:31;95595.59;;;26.42;44.29
34031;BME280;20319;28.466;-16.274;2023-08-20T00:12:57;95560.28;;;26.25;45.51
34031;BME280;20319;28.466;-16.274;2023-08-20T00:15:22;95371.69;;;25.10;46.33
34031;BME280;20319;28.466;-16.274;2023-08-20T00:17:52;95558.47;;;26.33;46.69
34031;BME280;20319;28.466;-16.274;2023-08-20T00:20:18;95388.13;;;25.25;47.55
34031;BME280;20319;28.466;-16.274;2023-08-20T00:22:45;95548.56;;;26.28;48.28
34031;BME280;20319;28.466;-16.274;2023-08-20T00:25:16;95522.09;;;26.20;49.14
34031;BME280;20319;28.466;-16.274;2023-08-20T00:27:42;95511.50;;;26.18;50.54
34031;BME280;20319;28.466;-16.274;2023-08-20T00:30:09;95356.56;;;25.16;50.97
34031;BME280;20319;28.466;-16.274;2023-08-20T00:32:36;95579.09;;;26.42;51.47
34031;BME280;20319;28.466;-16.274;2023-08-20T00:35:02;95374.16;;;25.15;50.71
34031;BME280;20319;28.466;-16.274;2023-08-20T00:37:29;95597.69;;;26.49;50.25
34031;BME280;20319;28.466;-16.274;2023-08-20T00:39:55;95575.72;;;26.49;50.32
34031;BME280;20319;28.466;-16.274;2023-08-20T00:42:20;95517.25;;;26.13;50.58
34031;BME280;20319;28.466;-16.274;2023-08-20T00:44:46;95566.63;;;26.45;49.84
34031;BME280;20319;28.466;-16.274;2023-08-20T00:47:12;95361.69;;;25.02;47.98
34031;BME280;20319;28.466;-16.274;2023-08-20T00:49:39;95413.28;;;25.31;46.85
34031;BME280;20319;28.466;-16.274;2023-08-20T00:52:07;95586.25;;;26.28;44.82
34031;BME280;20319;28.466;-16.274;2023-08-20T00:54:33;95544.19;;;26.08;44.26
34031;BME280;20319;28.466;-16.274;2023-08-20T00:56:59;95554.19;;;26.16;43.40
34031;BME280;20319;28.466;-16.274;2023-08-20T00:59:27;95560.13;;;26.18;43.27
34031;BME280;20319;28.466;-16.274;2023-08-20T01:01:52;95517.09;;;25.91;42.81
34031;BME280;20319;28.466;-16.274;2023-08-20T01:04:18;95524.06;;;25.88;42.69
34031;BME280;20319;28.466;-16.274;2023-08-20T01:06:58;95514.25;;;25.87;42.31
34031;BME280;20319;28.466;-16.274;2023-08-20T01:11:59;95538.25;;;26.06;41.44
34031;BME280;20319;28.466;-16.274;2023-08-20T01:14:25;95535.06;;;26.04;41.35
34031;BME280;20319;28.466;-16.274;2023-08-20T01:16:51;95535.41;;;26.02;40.91
34031;BME280;20319;28.466;-16.274;2023-08-20T01:19:18;95530.38;;;25.89;40.66
34031;BME280;20319;28.466;-16.274;2023-08-20T01:27:54;95566.91;;;25.93;40.98
34031;BME280;20319;28.466;-16.274;2023-08-20T01:30:24;95373.97;;;24.64;41.45
34031;BME280;20319;28.466;-16.274;2023-08-20T01:32:52;95381.97;;;24.69;45.52
34031;BME280;20319;28.466;-16.274;2023-08-20T01:35:17;95548.31;;;25.71;48.25
34031;BME280;20319;28.466;-16.274;2023-08-20T01:37:43;95553.72;;;25.67;51.42
34031;BME280;20319;28.466;-16.274;2023-08-20T01:40:10;95365.72;;;24.49;52.90
34031;BME280;20319;28.466;-16.274;2023-08-20T01:42:40;95559.66;;;25.54;54.02
34031;BME280;20319;28.466;-16.274;2023-08-20T01:45:06;95532.34;;;25.30;54.42
34031;BME280;20319;28.466;-16.274;2023-08-20T01:47:33;95521.88;;;25.20;53.12
34031;BME280;20319;28.466;-16.274;2023-08-20T01:49:59;95557.66;;;25.39;52.34
34031;BME280;20319;28.466;-16.274;2023-08-20T01:52:25;95360.25;;;24.21;51.62
34031;BME280;20319;28.466;-16.274;2023-08-20T01:54:51;95549.78;;;25.37;50.58
34031;BME280;20319;28.466;-16.274;2023-08-20T01:57:16;95486.78;;;25.10;49.00
34031;BME280;20319;28.466;-16.274;2023-08-20T01:59:42;95516.03;;;25.21;47.97
34031;BME280;20319;28.466;-16.274;2023-08-20T02:02:08;95514.81;;;25.19;46.99
34031;BME280;20319;28.466;-16.274;2023-08-20T02:04:34;95325.25;;;23.99;45.93
34031;BME280;20319;28.466;-16.274;2023-08-20T02:07:00;95502.25;;;25.18;45.71
34031;BME280;20319;28.466;-16.274;2023-08-20T02:09:25;95506.94;;;25.17;44.44
34031;BME280;20319;28.466;-16.274;2023-08-20T02:11:51;95308.50;;;23.89;44.03
34031;BME280;20319;28.466;-16.274;2023-08-20T02:14:17;95344.25;;;24.08;43.36
34031;BME280;20319;28.466;-16.274;2023-08-20T02:16:43;95450.28;;;24.78;42.80
34031;BME280;20319;28.466;-16.274;2023-08-20T02:19:09;95531.59;;;25.17;42.60
34031;BME280;20319;28.466;-16.274;2023-08-20T02:21:36;95514.09;;;25.22;41.83
34031;BME280;20319;28.466;-16.274;2023-08-20T02:24:01;95504.53;;;25.16;41.18
34031;BME280;20319;28.466;-16.274;2023-08-20T02:26:27;95522.56;;;25.17;41.42
34031;BME280;20319;28.466;-16.274;2023-08-20T02:28:53;95498.50;;;25.10;40.63
34031;BME280;20319;28.466;-16.274;2023-08-20T02:31:18;95515.53;;;25.31;39.99
34031;BME280;20319;28.466;-16.274;2023-08-20T02:33:44;95506.34;;;25.24;40.24
34031;BME280;20319;28.466;-16.274;2023-08-20T02:36:09;95363.81;;;24.49;40.09
34031;BME280;20319;28.466;-16.274;2023-08-20T02:38:35;95497.19;;;25.20;39.85
34031;BME280;20319;28.466;-16.274;2023-08-20T02:41:01;95330.91;;;24.34;39.95
34031;BME280;20319;28.466;-16.274;2023-08-20T02:43:28;95511.94;;;25.43;39.59
34031;BME280;20319;28.466;-16.274;2023-08-20T02:45:54;95285.84;;;24.16;39.51
34031;BME280;20319;28.466;-16.274;2023-08-20T02:48:20;95493.13;;;25.41;39.43
34031;BME280;20319;28.466;-16.274;2023-08-20T02:50:45;95489.22;;;25.42;39.43
34031;BME280;20319;28.466;-16.274;2023-08-20T02:53:11;95300.72;;;24.30;39.29
34031;BME280;20319;28.466;-16.274;2023-08-20T02:55:37;95472.03;;;25.30;39.01
34031;BME280;20319;28.466;-16.274;2023-08-20T02:58:03;95489.84;;;25.51;39.04
34031;BME280;20319;28.466;-16.274;2023-08-20T03:00:29;95494.69;;;25.58;38.51
34031;BME280;20319;28.466;-16.274;2023-08-20T03:02:55;95469.94;;;25.39;38.54
34031;BME280;20319;28.466;-16.274;2023-08-20T03:05:22;95293.13;;;24.39;38.29
34031;BME280;20319;28.466;-16.274;2023-08-20T03:07:47;95296.38;;;24.45;38.02
34031;BME280;20319;28.466;-16.274;2023-08-20T03:10:14;95274.56;;;24.33;38.22
34031;BME280;20319;28.466;-16.274;2023-08-20T03:12:39;95472.50;;;25.63;38.34
34031;BME280;20319;28.466;-16.274;2023-08-20T03:15:05;95249.84;;;24.29;37.80
34031;BME280;20319;28.466;-16.274;2023-08-20T03:17:32;95481.78;;;25.74;37.87
34031;BME280;20319;28.466;-16.274;2023-08-20T03:19:59;95326.59;;;24.76;37.73
34031;BME280;20319;28.466;-16.274;2023-08-20T03:22:26;95463.47;;;25.78;37.58
34031;BME280;20319;28.466;-16.274;2023-08-20T03:24:52;95464.69;;;25.80;37.56
34031;BME280;20319;28.466;-16.274;2023-08-20T03:27:19;95210.91;;;24.20;37.46
34031;BME280;20319;28.466;-16.274;2023-08-20T03:29:45;95453.47;;;25.70;36.91
34031;BME280;20319;28.466;-16.274;2023-08-20T03:32:11;95480.53;;;25.87;37.20
34031;BME280;20319;28.466;-16.274;2023-08-20T03:34:37;95466.44;;;25.88;37.14
34031;BME280;20319;28.466;-16.274;2023-08-20T03:37:03;95453.75;;;25.65;37.07
34031;BME280;20319;28.466;-16.274;2023-08-20T03:39:29;95375.84;;;25.35;36.78
34031;BME280;20319;28.466;-16.274;2023-08-20T03:41:57;95199.00;;;24.28;37.08
34031;BME280;20319;28.466;-16.274;2023-08-20T03:44:23;95453.94;;;25.72;37.41
34031;BME280;20319;28.466;-16.274;2023-08-20T03:46:48;95459.13;;;25.77;37.16
34031;BME280;20319;28.466;-16.274;2023-08-20T03:49:14;95436.03;;;25.78;37.36
34031;BME280;20319;28.466;-16.274;2023-08-20T03:51:40;95251.97;;;24.51;37.15
34031;BME280;20319;28.466;-16.274;2023-08-20T03:54:08;95429.16;;;25.68;37.25
34031;BME280;20319;28.466;-16.274;2023-08-20T03:56:33;95325.72;;;25.03;37.26
34031;BME280;20319;28.466;-16.274;2023-08-20T03:58:59;95468.41;;;26.03;37.23
34031;BME280;20319;28.466;-16.274;2023-08-20T04:01:25;95455.25;;;25.78;37.34
34031;BME280;20319;28.466;-16.274;2023-08-20T04:03:50;95462.75;;;25.81;37.12
34031;BME280;20319;28.466;-16.274;2023-08-20T04:06:16;95324.91;;;25.03;37.37
34031;BME280;20319;28.466;-16.274;2023-08-20T04:08:41;95479.19;;;26.12;37.24
34031;BME280;20319;28.466;-16.274;2023-08-20T04:11:08;95266.44;;;24.80;37.60
34031;BME280;20319;28.466;-16.274;2023-08-20T04:13:34;95211.63;;;24.48;37.30
34031;BME280;20319;28.466;-16.274;2023-08-20T04:16:00;95457.34;;;26.00;37.63
34031;BME280;20319;28.466;-16.274;2023-08-20T04:18:25;95451.03;;;25.99;37.69
34031;BME280;20319;28.466;-16.274;2023-08-20T04:20:52;95476.53;;;26.15;37.28
34031;BME280;20319;28.466;-16.274;2023-08-20T04:23:21;95466.63;;;26.11;37.80
34031;BME280;20319;28.466;-16.274;2023-08-20T04:25:47;95351.94;;;25.20;38.07
34031;BME280;20319;28.466;-16.274;2023-08-20T04:28:13;95287.16;;;24.96;38.41
34031;BME280;20319;28.466;-16.274;2023-08-20T04:30:38;95460.25;;;25.91;38.89
34031;BME280;20319;28.466;-16.274;2023-08-20T04:33:05;95272.50;;;24.89;39.27
34031;BME280;20319;28.466;-16.274;2023-08-20T04:35:31;95438.66;;;25.90;39.24
34031;BME280;20319;28.466;-16.274;2023-08-20T04:37:57;95280.47;;;24.94;39.68
34031;BME280;20319;28.466;-16.274;2023-08-20T04:40:22;95303.44;;;25.05;40.03
34031;BME280;20319;28.466;-16.274;2023-08-20T04:42:48;95284.97;;;25.02;40.18
34031;BME280;20319;28.466;-16.274;2023-08-20T04:45:14;95474.84;;;26.11;40.34
34031;BME280;20319;28.466;-16.274;2023-08-20T04:47:43;95478.28;;;26.24;40.39
34031;BME280;20319;28.466;-16.274;2023-08-20T04:50:09;95478.28;;;26.24;40.57
34031;BME280;20319;28.466;-16.274;2023-08-20T04:52:34;95321.63;;;25.13;41.07
34031;BME280;20319;28.466;-16.274;2023-08-20T04:55:01;95469.69;;;26.25;41.21
34031;BME280;20319;28.466;-16.274;2023-08-20T04:57:27;95474.31;;;26.21;41.10
34031;BME280;20319;28.466;-16.274;2023-08-20T04:59:52;95432.44;;;25.93;41.43
34031;BME280;20319;28.466;-16.274;2023-08-20T05:02:18;95454.47;;;26.12;41.60
34031;BME280;20319;28.466;-16.274;2023-08-20T05:04:44;95425.28;;;26.04;41.85
34031;BME280;20319;28.466;-16.274;2023-08-20T05:07:09;95470.13;;;26.27;42.03
34031;BME280;20319;28.466;-16.274;2023-08-20T05:09:35;95445.59;;;26.18;42.25
34031;BME280;20319;28.466;-16.274;2023-08-20T05:12:01;95248.03;;;24.96;42.34
34031;BME280;20319;28.466;-16.274;2023-08-20T05:14:28;95432.81;;;26.07;42.39
34031;BME280;20319;28.466;-16.274;2023-08-20T05:16:54;95289.47;;;25.10;42.38
34031;BME280;20319;28.466;-16.274;2023-08-20T05:19:19;95294.38;;;25.20;42.59
34031;BME280;20319;28.466;-16.274;2023-08-20T05:21:45;95443.81;;;26.07;42.62
34031;BME280;20319;28.466;-16.274;2023-08-20T05:24:11;95435.56;;;26.07;42.63
34031;BME280;20319;28.466;-16.274;2023-08-20T05:26:36;95490.66;;;26.33;42.54
34031;BME280;20319;28.466;-16.274;2023-08-20T05:29:02;95491.38;;;26.30;42.63
34031;BME280;20319;28.466;-16.274;2023-08-20T05:31:27;95419.81;;;25.88;42.49
34031;BME280;20319;28.466;-16.274;2023-08-20T05:33:53;95516.56;;;26.17;41.95
34031;BME280;20319;28.466;-16.274;2023-08-20T05:36:19;95487.28;;;26.05;41.49
34031;BME280;20319;28.466;-16.274;2023-08-20T05:38:44;95267.81;;;24.73;41.39
34031;BME280;20319;28.466;-16.274;2023-08-20T05:41:10;95257.16;;;24.68;41.43
34031;BME280;20319;28.466;-16.274;2023-08-20T05:43:36;95465.81;;;25.95;41.36
34031;BME280;20319;28.466;-16.274;2023-08-20T05:46:02;95469.09;;;25.85;41.31
34031;BME280;20319;28.466;-16.274;2023-08-20T05:48:28;95334.19;;;24.98;41.35
34031;BME280;20319;28.466;-16.274;2023-08-20T05:50:54;95209.25;;;24.31;41.46
34031;BME280;20319;28.466;-16.274;2023-08-20T05:53:23;95478.94;;;26.01;41.80
34031;BME280;20319;28.466;-16.274;2023-08-20T05:55:49;95471.16;;;25.88;42.16
34031;BME280;20319;28.466;-16.274;2023-08-20T05:58:15;95462.75;;;25.81;41.81
34031;BME280;20319;28.466;-16.274;2023-08-20T06:00:40;95496.91;;;25.99;42.20
34031;BME280;20319;28.466;-16.274;2023-08-20T06:03:06;95285.25;;;24.81;41.88
34031;BME280;20319;28.466;-16.274;2023-08-20T06:05:33;95237.41;;;24.47;41.71
34031;BME280;20319;28.466;-16.274;2023-08-20T06:07:59;95459.22;;;25.80;42.16
34031;BME280;20319;28.466;-16.274;2023-08-20T06:10:25;95494.84;;;25.96;42.07
34031;BME280;20319;28.466;-16.274;2023-08-20T06:12:52;95278.09;;;24.77;41.97
34031;BME280;20319;28.466;-16.274;2023-08-20T06:15:17;95471.06;;;26.00;42.37
34031;BME280;20319;28.466;-16.274;2023-08-20T06:17:43;95429.84;;;25.81;42.23
34031;BME280;20319;28.466;-16.274;2023-08-20T06:20:09;95470.34;;;26.03;42.47
34031;BME280;20319;28.466;-16.274;2023-08-20T06:22:37;95409.50;;;25.66;41.93
34031;BME280;20319;28.466;-16.274;2023-08-20T06:25:03;95456.44;;;25.96;42.20
34031;BME280;20319;28.466;-16.274;2023-08-20T06:27:29;95460.09;;;26.00;42.23
34031;BME280;20319;28.466;-16.274;2023-08-20T06:29:54;95275.34;;;24.77;42.19
34031;BME280;20319;28.466;-16.274;2023-08-20T06:32:20;95471.16;;;25.88;42.29
34031;BME280;20319;28.466;-16.274;2023-08-20T06:34:46;95269.06;;;24.76;42.39
34031;BME280;20319;28.466;-16.274;2023-08-20T06:37:11;95259.69;;;24.61;41.83
34031;BME280;20319;28.466;-16.274;2023-08-20T06:39:37;95444.63;;;25.76;42.18
34031;BME280;20319;28.466;-16.274;2023-08-20T06:42:03;95330.84;;;24.89;42.49
34031;BME280;20319;28.466;-16.274;2023-08-20T06:44:28;95451.19;;;25.72;42.21
34031;BME280;20319;28.466;-16.274;2023-08-20T06:46:54;95491.25;;;25.92;41.99
34031;BME280;20319;28.466;-16.274;2023-08-20T06:49:19;95290.44;;;24.70;42.21
34031;BME280;20319;28.466;-16.274;2023-08-20T06:51:45;95461.84;;;25.77;42.11
34031;BME280;20319;28.466;-16.274;2023-08-20T06:54:10;95488.84;;;25.90;41.96
34031;BME280;20319;28.466;-16.274;2023-08-20T06:56:36;95270.78;;;24.53;41.39
34031;BME280;20319;28.466;-16.274;2023-08-20T06:59:02;95458.88;;;25.66;41.34
34031;BME280;20319;28.466;-16.274;2023-08-20T07:01:28;95333.66;;;25.08;40.95
34031;BME280;20319;28.466;-16.274;2023-08-20T07:03:54;95427.75;;;25.59;41.28
34031;BME280;20319;28.466;-16.274;2023-08-20T07:06:20;95480.63;;;25.90;40.82
34031;BME280;20319;28.466;-16.274;2023-08-20T07:08:46;95488.22;;;26.12;41.03
34031;BME280;20319;28.466;-16.274;2023-08-20T07:11:11;95277.91;;;24.85;40.54
34031;BME280;20319;28.466;-16.274;2023-08-20T07:13:37;95500.88;;;26.17;40.28
34031;BME280;20319;28.466;-16.274;2023-08-20T07:16:03;95500.16;;;26.20;40.07
34031;BME280;20319;28.466;-16.274;2023-08-20T07:18:29;95495.41;;;26.36;40.42
34031;BME280;20319;28.466;-16.274;2023-08-20T07:20:55;95465.19;;;26.17;40.20
34031;BME280;20319;28.466;-16.274;2023-08-20T07:23:21;95500.31;;;26.27;40.89
34031;BME280;20319;28.466;-16.274;2023-08-20T07:25:47;95500.44;;;26.50;40.37
34031;BME280;20319;28.466;-16.274;2023-08-20T07:28:14;95328.25;;;25.43;40.83
34031;BME280;20319;28.466;-16.274;2023-08-20T07:30:39;95508.91;;;26.60;40.94
34031;BME280;20319;28.466;-16.274;2023-08-20T07:33:06;95497.91;;;26.60;40.93
34031;BME280;20319;28.466;-16.274;2023-08-20T07:35:32;95503.97;;;26.66;41.11
34031;BME280;20319;28.466;-16.274;2023-08-20T07:37:58;95356.13;;;25.79;41.18
34031;BME280;20319;28.466;-16.274;2023-08-20T07:40:23;95514.59;;;26.86;41.31
34031;BME280;20319;28.466;-16.274;2023-08-20T07:42:49;95502.28;;;26.80;41.80
34031;BME280;20319;28.466;-16.274;2023-08-20T07:45:16;95523.13;;;27.00;41.82
34031;BME280;20319;28.466;-16.274;2023-08-20T07:47:41;95491.44;;;26.87;41.92
34031;BME280;20319;28.466;-16.274;2023-08-20T07:50:07;95531.91;;;27.09;42.17
34031;BME280;20319;28.466;-16.274;2023-08-20T07:52:33;95368.97;;;26.29;42.21
34031;BME280;20319;28.466;-16.274;2023-08-20T07:54:59;95524.06;;;27.27;42.58
34031;BME280;20319;28.466;-16.274;2023-08-20T07:57:24;95271.06;;;25.79;42.75
34031;BME280;20319;28.466;-16.274;2023-08-20T07:59:50;95349.03;;;26.32;43.12
34031;BME280;20319;28.466;-16.274;2023-08-20T08:02:16;95495.53;;;27.35;43.01
34031;BME280;20319;28.466;-16.274;2023-08-20T08:04:42;95487.28;;;27.35;43.54
34031;BME280;20319;28.466;-16.274;2023-08-20T08:07:09;95185.97;;;25.57;43.10
34031;BME280;20319;28.466;-16.274;2023-08-20T08:09:35;95351.31;;;26.68;43.53
34031;BME280;20319;28.466;-16.274;2023-08-20T08:12:01;95524.25;;;27.83;43.61
34031;BME280;20319;28.466;-16.274;2023-08-20T08:14:27;95521.16;;;27.84;43.62
34031;BME280;20319;28.466;-16.274;2023-08-20T08:16:53;95327.53;;;26.57;44.10
34031;BME280;20319;28.466;-16.274;2023-08-20T08:19:19;95524.50;;;27.93;43.75
34031;BME280;20319;28.466;-16.274;2023-08-20T08:21:45;95534.94;;;28.07;44.01
34031;BME280;20319;28.466;-16.274;2023-08-20T08:24:11;95514.63;;;27.92;43.90
34031;BME280;20319;28.466;-16.274;2023-08-20T08:26:38;95527.19;;;28.16;44.11
34031;BME280;20319;28.466;-16.274;2023-08-20T08:29:05;95506.06;;;27.97;44.26
34031;BME280;20319;28.466;-16.274;2023-08-20T08:31:31;95520.91;;;28.15;44.29
34031;BME280;20319;28.466;-16.274;2023-08-20T08:33:57;95515.78;;;28.14;44.05
34031;BME280;20319;28.466;-16.274;2023-08-20T08:36:23;95527.00;;;28.28;44.17
34031;BME280;20319;28.466;-16.274;2023-08-20T08:38:52;95512.38;;;28.24;44.42
34031;BME280;20319;28.466;-16.274;2023-08-20T08:41:21;95547.78;;;28.48;44.47
34031;BME280;20319;28.466;-16.274;2023-08-20T08:43:47;95537.09;;;28.46;43.96
34031;BME280;20319;28.466;-16.274;2023-08-20T08:46:14;95568.97;;;28.70;44.80
34031;BME280;20319;28.466;-16.274;2023-08-20T08:48:42;95554.97;;;28.82;44.75
34031;BME280;20319;28.466;-16.274;2023-08-20T08:51:08;95374.47;;;27.84;44.44
34031;BME280;20319;28.466;-16.274;2023-08-20T08:53:35;95547.72;;;29.00;44.00
34031;BME280;20319;28.466;-16.274;2023-08-20T08:56:01;95387.44;;;28.09;44.19
34031;BME280;20319;28.466;-16.274;2023-08-20T08:58:28;95558.28;;;29.24;43.93
34031;BME280;20319;28.466;-16.274;2023-08-20T09:00:54;95536.06;;;29.10;43.68
34031;BME280;20319;28.466;-16.274;2023-08-20T09:03:20;95516.00;;;29.13;43.50
34031;BME280;20319;28.466;-16.274;2023-08-20T09:05:54;95564.09;;;29.49;43.89
34031;BME280;20319;28.466;-16.274;2023-08-20T09:08:26;95363.44;;;28.36;43.57
34031;BME280;20319;28.466;-16.274;2023-08-20T09:10:54;95564.75;;;29.72;43.79
34031;BME280;20319;28.466;-16.274;2023-08-20T09:13:32;95570.72;;;29.77;43.12
34031;BME280;20319;28.466;-16.274;2023-08-20T09:15:59;95549.47;;;29.81;43.40
34031;BME280;20319;28.466;-16.274;2023-08-20T09:18:24;95544.03;;;29.88;43.13
34031;BME280;20319;28.466;-16.274;2023-08-20T09:20:50;95543.22;;;29.88;43.28
34031;BME280;20319;28.466;-16.274;2023-08-20T09:23:16;95554.25;;;29.88;43.23
34031;BME280;20319;28.466;-16.274;2023-08-20T09:25:42;95542.28;;;29.73;43.27
34031;BME280;20319;28.466;-16.274;2023-08-20T09:28:08;95397.16;;;28.92;43.29
34031;BME280;20319;28.466;-16.274;2023-08-20T09:30:34;95537.94;;;29.72;43.07
34031;BME280;20319;28.466;-16.274;2023-08-20T09:33:18;95382.63;;;28.62;43.48
34031;BME280;20319;28.466;-16.274;2023-08-20T09:35:51;95240.28;;;27.74;43.96
34031;BME280;20319;28.466;-16.274;2023-08-20T09:38:20;95529.50;;;29.58;44.55
34031;BME280;20319;28.466;-16.274;2023-08-20T09:40:52;95552.94;;;29.75;46.10
34031;BME280;20319;28.466;-16.274;2023-08-20T09:43:23;95546.06;;;29.58;46.24
34031;BME280;20319;28.466;-16.274;2023-08-20T09:45:54;95554.09;;;29.70;46.55
34031;BME280;20319;28.466;-16.274;2023-08-20T09:48:21;95551.78;;;29.76;46.29
34031;BME280;20319;28.466;-16.274;2023-08-20T09:50:51;95549.50;;;29.85;46.88
34031;BME280;20319;28.466;-16.274;2023-08-20T09:53:35;95431.69;;;29.12;47.24
34031;BME280;20319;28.466;-16.274;2023-08-20T09:56:29;95580.47;;;30.04;47.45
34031;BME280;20319;28.466;-16.274;2023-08-20T09:58:57;95483.75;;;29.57;48.13
34031;BME280;20319;28.466;-16.274;2023-08-20T10:01:23;95583.34;;;30.18;47.93
34031;BME280;20319;28.466;-16.274;2023-08-20T10:03:50;95574.91;;;30.01;48.08
34031;BME280;20319;28.466;-16.274;2023-08-20T10:06:16;95574.44;;;29.92;48.48
34031;BME280;20319;28.466;-16.274;2023-08-20T10:08:43;95476.56;;;29.09;48.53
34031;BME280;20319;28.466;-16.274;2023-08-20T10:11:11;95428.22;;;28.89;48.27
34031;BME280;20319;28.466;-16.274;2023-08-20T10:13:36;95567.06;;;29.66;48.59
34031;BME280;20319;28.466;-16.274;2023-08-20T10:16:02;95609.44;;;29.81;48.66
34031;BME280;20319;28.466;-16.274;2023-08-20T10:18:28;95585.69;;;29.73;48.25
34031;BME280;20319;28.466;-16.274;2023-08-20T10:20:57;95448.22;;;28.79;48.25
34031;BME280;20319;28.466;-16.274;2023-08-20T10:23:24;95595.88;;;29.69;47.94
34031;BME280;20319;28.466;-16.274;2023-08-20T10:25:52;95610.19;;;29.81;47.95
34031;BME280;20319;28.466;-16.274;2023-08-20T10:28:27;95589.41;;;29.58;48.15
34031;BME280;20319;28.466;-16.274;2023-08-20T10:34:16;95359.41;;;28.30;48.60
34031;BME280;20319;28.466;-16.274;2023-08-20T10:36:23;95643.19;;;30.04;48.99
34031;BME280;20319;28.466;-16.274;2023-08-20T10:38:56;95533.50;;;29.28;48.97
34031;BME280;20319;28.466;-16.274;2023-08-20T10:41:27;95484.66;;;28.98;49.89
34031;BME280;20319;28.466;-16.274;2023-08-20T10:43:57;95532.00;;;29.34;50.00
34031;BME280;20319;28.466;-16.274;2023-08-20T10:46:24;95656.00;;;30.22;49.23
34031;BME280;20319;28.466;-16.274;2023-08-20T10:49:01;95650.72;;;30.07;48.95
34031;BME280;20319;28.466;-16.274;2023-08-20T10:51:33;95627.78;;;30.03;48.51
34031;BME280;20319;28.466;-16.274;2023-08-20T10:56:48;95442.50;;;28.94;47.89
34031;BME280;20319;28.466;-16.274;2023-08-20T11:01:48;95225.47;;;27.52;47.75
34031;BME280;20319;28.466;-16.274;2023-08-20T11:04:19;95647.00;;;30.29;47.94
34031;BME280;20319;28.466;-16.274;2023-08-20T11:06:46;95481.13;;;29.31;47.83
34031;BME280;20319;28.466;-16.274;2023-08-20T11:09:14;95636.00;;;30.33;47.46
34031;BME280;20319;28.466;-16.274;2023-08-20T11:11:41;95631.75;;;30.46;47.70
34031;BME280;20319;28.466;-16.274;2023-08-20T11:14:14;95485.41;;;29.65;47.13
34031;BME280;20319;28.466;-16.274;2023-08-20T11:16:42;95614.13;;;30.64;46.99
34031;BME280;20319;28.466;-16.274;2023-08-20T11:19:08;95497.13;;;29.95;46.70
34031;BME280;20319;28.466;-16.274;2023-08-20T11:21:35;95609.47;;;30.75;46.56
34031;BME280;20319;28.466;-16.274;2023-08-20T11:24:01;95659.50;;;31.10;46.23
34031;BME280;20319;28.466;-16.274;2023-08-20T11:26:27;95674.97;;;31.18;46.35
34031;BME280;20319;28.466;-16.274;2023-08-20T11:28:53;95631.09;;;31.17;46.30
34031;BME280;20319;28.466;-16.274;2023-08-20T11:31:19;95504.25;;;30.54;45.89
34031;BME280;20319;28.466;-16.274;2023-08-20T11:33:45;95599.06;;;31.12;45.73
34031;BME280;20319;28.466;-16.274;2023-08-20T11:36:11;95478.47;;;30.33;45.38
34031;BME280;20319;28.466;-16.274;2023-08-20T11:38:37;95482.88;;;30.41;45.62
34031;BME280;20319;28.466;-16.274;2023-08-20T11:41:03;95621.59;;;31.14;45.53
34031;BME280;20319;28.466;-16.274;2023-08-20T11:43:29;95643.06;;;31.35;45.82
34031;BME280;20319;28.466;-16.274;2023-08-20T11:45:55;95679.13;;;31.56;45.61
34031;BME280;20319;28.466;-16.274;2023-08-20T11:48:21;95644.72;;;31.50;44.98
34031;BME280;20319;28.466;-16.274;2023-08-20T11:50:48;95638.41;;;31.53;45.25
34031;BME280;20319;28.466;-16.274;2023-08-20T11:53:15;95586.81;;;31.17;45.11
34031;BME280;20319;28.466;-16.274;2023-08-20T11:55:41;95664.13;;;31.57;45.36
34031;BME280;20319;28.466;-16.274;2023-08-20T11:58:13;95486.06;;;30.43;45.09
34031;BME280;20319;28.466;-16.274;2023-08-20T12:00:40;95636.00;;;31.44;45.17
34031;BME280;20319;28.466;-16.274;2023-08-20T12:03:08;95486.53;;;30.55;45.12
34031;BME280;20319;28.466;-16.274;2023-08-20T12:05:34;95636.75;;;31.38;44.99
34031;BME280;20319;28.466;-16.274;2023-08-20T12:08:03;95659.34;;;31.47;45.38
34031;BME280;20319;28.466;-16.274;2023-08-20T12:10:31;95498.69;;;30.44;45.28
34031;BME280;20319;28.466;-16.274;2023-08-20T12:12:57;95648.66;;;31.45;45.23
34031;BME280;20319;28.466;-16.274;2023-08-20T12:15:24;95624.41;;;31.25;45.44
34031;BME280;20319;28.466;-16.274;2023-08-20T12:17:58;95642.34;;;31.52;45.40
34031;BME280;20319;28.466;-16.274;2023-08-20T12:20:26;95467.94;;;30.49;45.11
34031;BME280;20319;28.466;-16.274;2023-08-20T12:22:52;95634.47;;;31.61;44.94
34031;BME280;20319;28.466;-16.274;2023-08-20T12:25:17;95477.13;;;30.74;44.55
34031;BME280;20319;28.466;-16.274;2023-08-20T12:27:43;95614.34;;;31.71;43.88
34031;BME280;20319;28.466;-16.274;2023-08-20T12:30:09;95495.88;;;31.12;43.50
34031;BME280;20319;28.466;-16.274;2023-08-20T12:32:34;95469.38;;;30.97;43.48
34031;BME280;20319;28.466;-16.274;2023-08-20T12:35:00;95602.16;;;31.93;43.25
34031;BME280;20319;28.466;-16.274;2023-08-20T12:37:25;95576.81;;;31.84;43.35
34031;BME280;20319;28.466;-16.274;2023-08-20T12:39:51;95643.78;;;32.28;42.22
34031;BME280;20319;28.466;-16.274;2023-08-20T12:42:17;95494.84;;;31.44;42.29
34031;BME280;20319;28.466;-16.274;2023-08-20T12:44:42;95626.75;;;32.33;41.97
34031;BME280;20319;28.466;-16.274;2023-08-20T12:47:08;95641.41;;;32.30;42.18
34031;BME280;20319;28.466;-16.274;2023-08-20T12:49:33;95620.00;;;32.31;42.14
34031;BME280;20319;28.466;-16.274;2023-08-20T12:51:59;95441.31;;;31.05;42.19
34031;BME280;20319;28.466;-16.274;2023-08-20T12:54:24;95633.03;;;31.95;42.44